createdAt,value
2023-02-24T00:00:32.437Z,96088.41
2023-02-24T00:03:06.437Z,96041.84
2023-02-24T00:05:37.026Z,96048.72
2023-02-24T00:08:05.293Z,96029.09
2023-02-24T00:10:34.113Z,96065.78
2023-02-24T00:13:02.376Z,96036.47
2023-02-24T00:15:30.648Z,96072.00
2023-02-24T00:17:59.329Z,96085.28
2023-02-24T00:20:33.409Z,96095.47
2023-02-24T00:23:01.687Z,96057.63
2023-02-24T00:25:29.901Z,96092.38
2023-02-24T00:30:55.727Z,96058.59
2023-02-24T00:33:24.634Z,96051.38
2023-02-24T00:35:55.310Z,96043.00
2023-02-24T00:38:25.598Z,96073.66
2023-02-24T00:40:55.574Z,96054.97
2023-02-24T00:43:23.893Z,96017.28
2023-02-24T00:45:52.259Z,96090.00
2023-02-24T00:48:22.386Z,96060.84
2023-02-24T00:50:52.261Z,96011.34
2023-02-24T00:53:22.124Z,96033.50
2023-02-24T00:56:00.470Z,96031.03
2023-02-24T00:58:29.938Z,95998.28
2023-02-24T01:00:58.330Z,96050.38
2023-02-24T01:03:29.935Z,96053.66
2023-02-24T01:06:12.992Z,96042.19
2023-02-24T01:08:47.618Z,96035.31
2023-02-24T01:11:34.734Z,96014.00
2023-02-24T01:14:06.459Z,96009.75
2023-02-24T01:16:34.854Z,96072.66
2023-02-24T01:19:03.162Z,96013.00
2023-02-24T01:21:31.509Z,96011.19
2023-02-24T01:24:01.145Z,95991.09
2023-02-24T01:26:30.848Z,95992.38
2023-02-24T01:28:59.136Z,96018.75
2023-02-24T01:31:28.790Z,96024.84
2023-02-24T01:33:57.294Z,95966.47
2023-02-24T01:36:27.471Z,95941.63
2023-02-24T01:38:55.968Z,96025.16
2023-02-24T01:41:27.737Z,95979.59
2023-02-24T01:44:06.981Z,95968.47
2023-02-24T01:46:38.833Z,96023.53
2023-02-24T01:49:12.605Z,96007.47
2023-02-24T01:51:47.074Z,95992.41
2023-02-24T01:54:20.778Z,95998.44
2023-02-24T01:56:52.678Z,96090.72
2023-02-24T01:59:23.507Z,95973.69
2023-02-24T02:01:55.327Z,95967.16
2023-02-24T02:04:35.450Z,95979.13
2023-02-24T02:07:04.260Z,95949.28
2023-02-24T02:09:34.041Z,95976.97
2023-02-24T02:12:03.716Z,95973.06
2023-02-24T02:14:33.150Z,95977.94
2023-02-24T02:17:16.608Z,95974.50
2023-02-24T02:20:27.623Z,95962.88
2023-02-24T02:23:35.814Z,95974.34
2023-02-24T02:26:48.299Z,95889.47
2023-02-24T02:29:46.279Z,95968.94
2023-02-24T02:32:53.158Z,95936.34
2023-02-24T02:35:26.835Z,95993.38
2023-02-24T02:38:03.319Z,95980.41
2023-02-24T02:40:41.156Z,95930.44
2023-02-24T02:43:17.231Z,95954.69
2023-02-24T02:45:50.991Z,95940.78
2023-02-24T02:48:25.673Z,95895.22
2023-02-24T02:51:04.398Z,95915.69
2023-02-24T02:53:39.118Z,95974.03
2023-02-24T02:56:15.345Z,95942.28
2023-02-24T02:58:47.944Z,95954.38
2023-02-24T03:01:21.659Z,95930.47
2023-02-24T03:04:27.662Z,95900.66
2023-02-24T03:07:06.221Z,95941.94
2023-02-24T03:09:40.543Z,95957.66
2023-02-24T03:12:14.672Z,95897.06
2023-02-24T03:14:51.048Z,95923.91
2023-02-24T03:17:47.788Z,95933.09
2023-02-24T03:20:24.090Z,95876.09
2023-02-24T03:23:00.884Z,95927.84
2023-02-24T03:25:39.159Z,95791.41
2023-02-24T03:28:17.611Z,95917.69
2023-02-24T03:30:53.597Z,95920.97
2023-02-24T03:33:26.889Z,95921.63
2023-02-24T03:36:01.651Z,95923.25
2023-02-24T03:38:38.286Z,95940.94
2023-02-24T03:41:11.270Z,95933.56
2023-02-24T03:43:46.023Z,95918.19
2023-02-24T03:46:16.966Z,95944.22
2023-02-24T03:48:52.784Z,95908.84
2023-02-24T03:51:24.233Z,95860.03
2023-02-24T03:54:20.549Z,95912.09
2023-02-24T03:57:02.512Z,95919.47
2023-02-24T03:59:43.353Z,95918.34
2023-02-24T04:02:20.371Z,95903.91
2023-02-24T04:04:59.222Z,95936.38
2023-02-24T04:07:42.281Z,95898.03
2023-02-24T04:10:21.647Z,95883.28
2023-02-24T04:12:57.503Z,95915.41
2023-02-24T04:15:30.860Z,95856.44
2023-02-24T04:18:04.270Z,95924.25
2023-02-24T04:20:39.896Z,95850.19
2023-02-24T04:23:15.475Z,95926.19
2023-02-24T04:25:50.681Z,95934.38
2023-02-24T04:28:21.262Z,95856.09
2023-02-24T04:30:55.409Z,95901.47
2023-02-24T04:33:24.621Z,95913.41
2023-02-24T04:35:54.892Z,95883.13
2023-02-24T04:38:24.229Z,95834.00
2023-02-24T04:40:54.383Z,95910.13
2023-02-24T04:43:22.969Z,96032.69
2023-02-24T04:45:51.571Z,95877.91
2023-02-24T04:48:20.348Z,95893.78
2023-02-24T04:50:55.006Z,95868.19
2023-02-24T04:53:27.195Z,95811.25
2023-02-24T04:55:57.127Z,95747.16
2023-02-24T04:58:28.098Z,95902.13
2023-02-24T05:00:57.439Z,95894.28
2023-02-24T05:03:28.281Z,95878.88
2023-02-24T05:06:00.893Z,95854.78
2023-02-24T05:08:31.805Z,95819.13
2023-02-24T05:11:03.821Z,95889.50
2023-02-24T05:13:33.625Z,95865.25
2023-02-24T05:16:07.401Z,95812.91
2023-02-24T05:18:37.037Z,95809.94
2023-02-24T05:21:26.458Z,95836.63
2023-02-24T05:23:55.907Z,95878.06
2023-02-24T05:26:26.274Z,95822.41
2023-02-24T05:28:56.676Z,95852.19
2023-02-24T05:31:28.346Z,95857.44
2023-02-24T05:33:59.194Z,95824.00
2023-02-24T05:36:30.545Z,95823.03
2023-02-24T05:38:59.430Z,95799.34
2023-02-24T05:41:32.587Z,95815.88
2023-02-24T05:44:04.849Z,95905.88
2023-02-24T05:46:36.401Z,95820.63
2023-02-24T05:49:09.571Z,95781.84
2023-02-24T05:51:43.362Z,95815.19
2023-02-24T05:54:14.806Z,95830.91
2023-02-24T05:56:44.484Z,95831.25
2023-02-24T05:59:18.257Z,95807.66
2023-02-24T06:01:46.586Z,95793.31
2023-02-24T06:04:27.865Z,95805.06
2023-02-24T06:06:56.091Z,95808.19
2023-02-24T06:09:24.295Z,95746.47
2023-02-24T06:11:54.301Z,95791.31
2023-02-24T06:14:22.628Z,95800.47
2023-02-24T06:16:51.005Z,95807.34
2023-02-24T06:19:20.711Z,95806.69
2023-02-24T06:21:49.389Z,95800.81
2023-02-24T06:24:18.606Z,95803.09
2023-02-24T06:26:49.271Z,95790.34
2023-02-24T06:29:19.405Z,95832.88
2023-02-24T06:31:48.633Z,95810.97
2023-02-24T06:34:18.336Z,95768.25
2023-02-24T06:36:47.033Z,95762.53
2023-02-24T06:39:16.934Z,95820.13
2023-02-24T06:41:45.300Z,95807.03
2023-02-24T06:44:13.737Z,95789.31
2023-02-24T06:46:43.368Z,95581.59
2023-02-24T06:49:12.633Z,95780.34
2023-02-24T06:51:43.402Z,95761.22
2023-02-24T06:54:12.720Z,95731.28
2023-02-24T06:56:41.797Z,95819.16
2023-02-24T06:59:12.848Z,95802.94
2023-02-24T07:01:47.148Z,95812.56
2023-02-24T07:04:19.023Z,95781.50
2023-02-24T07:07:03.313Z,95827.97
2023-02-24T07:09:32.542Z,95797.38
2023-02-24T07:12:02.944Z,95736.69
2023-02-24T07:14:31.868Z,95793.59
2023-02-24T07:17:00.685Z,95723.09
2023-02-24T07:19:32.998Z,95736.31
2023-02-24T07:22:03.558Z,95744.34
2023-02-24T07:24:36.470Z,95803.59
2023-02-24T07:27:07.548Z,95772.47
2023-02-24T07:29:37.716Z,95770.34
2023-02-24T07:32:09.675Z,95655.56
2023-02-24T07:34:40.956Z,95716.34
2023-02-24T07:37:10.317Z,95754.00
2023-02-24T07:39:42.951Z,95757.44
2023-02-24T07:42:13.708Z,95787.84
2023-02-24T07:44:49.294Z,95757.06
2023-02-24T07:47:21.462Z,95747.56
2023-02-24T07:49:51.189Z,95689.06
2023-02-24T07:52:19.408Z,95778.84
2023-02-24T07:54:49.696Z,95765.75
2023-02-24T07:57:18.905Z,95754.75
2023-02-24T07:59:48.196Z,95734.59
2023-02-24T08:02:18.321Z,95706.94
2023-02-24T08:04:51.396Z,95694.19
2023-02-24T08:07:24.815Z,95743.44
2023-02-24T08:10:24.154Z,95707.72
2023-02-24T08:12:56.848Z,95732.25
2023-02-24T08:15:33.837Z,95757.50
2023-02-24T08:18:02.679Z,95735.59
2023-02-24T08:20:36.279Z,95770.63
2023-02-24T08:23:08.759Z,95686.09
2023-02-24T08:25:41.391Z,95711.69
2023-02-24T08:28:11.576Z,95733.97
2023-02-24T08:30:45.457Z,95680.63
2023-02-24T08:33:19.901Z,95736.41
2023-02-24T08:35:57.893Z,95684.50
2023-02-24T08:38:39.624Z,95732.66
2023-02-24T08:41:13.148Z,95721.50
2023-02-24T08:43:42.166Z,95717.56
2023-02-24T08:46:26.071Z,95692.97
2023-02-24T08:49:00.718Z,95682.31
2023-02-24T08:51:34.520Z,95753.53
2023-02-24T08:54:10.854Z,95638.50
2023-02-24T08:56:43.343Z,95725.34
2023-02-24T08:59:29.066Z,95696.34
2023-02-24T09:02:12.906Z,95664.56
2023-02-24T09:04:41.139Z,95703.41
2023-02-24T09:07:15.970Z,95731.19
2023-02-24T09:09:45.627Z,95734.66
2023-02-24T09:12:22.052Z,95660.41
2023-02-24T09:14:55.379Z,95665.50
2023-02-24T09:17:49.891Z,95694.13
2023-02-24T09:20:38.551Z,95687.75
2023-02-24T09:23:08.671Z,95703.97
2023-02-24T09:25:44.916Z,95642.31
2023-02-24T09:28:18.074Z,95590.56
2023-02-24T09:30:54.898Z,95696.28
2023-02-24T09:33:26.544Z,95708.16
2023-02-24T09:36:09.541Z,95532.31
2023-02-24T09:38:57.507Z,95637.06
2023-02-24T09:41:33.603Z,95674.84
2023-02-24T09:44:07.622Z,95651.47
2023-02-24T09:46:53.739Z,95669.63
2023-02-24T09:49:25.847Z,95681.03
2023-02-24T09:52:00.481Z,95648.84
2023-02-24T09:54:33.356Z,95645.38
2023-02-24T09:57:09.227Z,95614.88
2023-02-24T10:00:01.119Z,95640.84
2023-02-24T10:02:47.097Z,95643.72
2023-02-24T10:05:27.378Z,95650.03
2023-02-24T10:07:58.068Z,95642.63
2023-02-24T10:10:35.775Z,95647.22
2023-02-24T10:13:14.982Z,95641.00
2023-02-24T10:15:58.979Z,95600.56
2023-02-24T10:18:34.658Z,95543.47
2023-02-24T10:21:16.644Z,95634.00
2023-02-24T10:24:08.941Z,95644.47
2023-02-24T10:26:59.734Z,95638.25
2023-02-24T10:29:46.285Z,95612.16
2023-02-24T10:32:25.006Z,95448.91
2023-02-24T10:34:54.076Z,95544.06
2023-02-24T10:37:29.551Z,95645.09
2023-02-24T10:40:09.462Z,95592.75
2023-02-24T10:42:45.704Z,95625.66
2023-02-24T10:45:19.352Z,95632.25
2023-02-24T10:47:57.694Z,95586.03
2023-02-24T10:50:32.615Z,95561.47
2023-02-24T10:53:34.280Z,95594.88
2023-02-24T10:56:26.783Z,95516.63
2023-02-24T10:59:22.147Z,95587.19
2023-02-24T11:01:59.146Z,95597.78
2023-02-24T11:04:53.861Z,95568.78
2023-02-24T11:07:44.140Z,95589.63
2023-02-24T11:10:26.136Z,95560.63
2023-02-24T11:13:14.401Z,95597.91
2023-02-24T11:16:03.775Z,95601.34
2023-02-24T11:18:34.472Z,95581.84
2023-02-24T11:21:05.905Z,95543.97
2023-02-24T11:23:40.246Z,95545.94
2023-02-24T11:26:17.616Z,95534.38
2023-02-24T11:29:03.894Z,95536.38
2023-02-24T11:31:59.568Z,95560.38
2023-02-24T11:34:42.478Z,95518.69
2023-02-24T11:37:34.487Z,95557.66
2023-02-24T11:40:09.478Z,95496.88
2023-02-24T11:42:43.712Z,95531.06
2023-02-24T11:45:25.428Z,95505.78
2023-02-24T11:48:00.287Z,95489.56
2023-02-24T11:50:39.616Z,95494.47
2023-02-24T11:53:23.831Z,95528.56
2023-02-24T11:55:59.725Z,95515.44
2023-02-24T11:58:36.831Z,95475.31
2023-02-24T12:01:13.520Z,95412.97
2023-02-24T12:03:52.244Z,95462.00
2023-02-24T12:06:35.282Z,95438.06
2023-02-24T12:09:10.308Z,95459.66
2023-02-24T12:11:53.223Z,95454.88
2023-02-24T12:14:28.696Z,95449.25
2023-02-24T12:17:12.066Z,95504.53
2023-02-24T12:19:54.562Z,95446.53
2023-02-24T12:22:30.050Z,95474.53
2023-02-24T12:24:58.654Z,95417.97
2023-02-24T12:27:42.221Z,95448.34
2023-02-24T12:30:49.639Z,95420.88
2023-02-24T12:33:42.366Z,95425.63
2023-02-24T12:36:23.704Z,95409.06
2023-02-24T12:39:07.013Z,95445.69
2023-02-24T12:41:53.775Z,95430.31
2023-02-24T12:44:37.205Z,95413.00
2023-02-24T12:47:11.736Z,95384.09
2023-02-24T12:50:06.826Z,95337.91
2023-02-24T12:52:50.848Z,95384.69
2023-02-24T12:55:27.850Z,95401.75
2023-02-24T12:58:09.387Z,95425.31
2023-02-24T13:00:51.476Z,95402.56
2023-02-24T13:03:37.183Z,95394.91
2023-02-24T13:06:23.180Z,95383.94
2023-02-24T13:08:59.909Z,95353.91
2023-02-24T13:11:41.662Z,95349.03
2023-02-24T13:14:20.747Z,95345.13
2023-02-24T13:16:49.455Z,95357.19
2023-02-24T13:19:23.350Z,95368.19
2023-02-24T13:22:05.140Z,95303.38
2023-02-24T13:24:34.450Z,95259.78
2023-02-24T13:27:21.616Z,95308.34
2023-02-24T13:29:51.979Z,95339.72
2023-02-24T13:32:31.663Z,95322.91
2023-02-24T13:35:02.585Z,95361.31
2023-02-24T13:37:35.530Z,95294.44
2023-02-24T13:40:23.276Z,95318.13
2023-02-24T13:43:01.937Z,95324.63
2023-02-24T13:45:31.892Z,95332.31
2023-02-24T13:48:24.212Z,95316.47
2023-02-24T13:51:21.170Z,95296.50
2023-02-24T13:54:08.502Z,95261.31
2023-02-24T13:56:44.999Z,95328.41
2023-02-24T13:59:40.525Z,95309.91
2023-02-24T14:02:16.794Z,95327.78
2023-02-24T14:04:51.857Z,95237.97
2023-02-24T14:07:23.965Z,95299.31
2023-02-24T14:09:55.594Z,95210.63
2023-02-24T14:12:28.989Z,95248.22
2023-02-24T14:14:59.250Z,95309.16
2023-02-24T14:17:32.708Z,95276.16
2023-02-24T14:20:15.737Z,95256.41
2023-02-24T14:22:49.379Z,95265.50
2023-02-24T14:25:18.287Z,95233.53
2023-02-24T14:27:49.998Z,95274.19
2023-02-24T14:30:34.585Z,95288.66
2023-02-24T14:33:04.291Z,95267.78
2023-02-24T14:35:38.729Z,95266.97
2023-02-24T14:38:07.339Z,95288.56
2023-02-24T14:40:35.492Z,95247.53
2023-02-24T14:43:04.676Z,95250.72
2023-02-24T14:45:34.171Z,95247.47
2023-02-24T14:48:02.361Z,95254.13
2023-02-24T14:50:34.096Z,95158.06
2023-02-24T14:53:06.966Z,95251.25
2023-02-24T14:55:38.682Z,95254.69
2023-02-24T14:58:14.596Z,95232.00
2023-02-24T15:00:50.876Z,95202.97
2023-02-24T15:03:24.558Z,95206.81
2023-02-24T15:05:58.084Z,95221.03
2023-02-24T15:08:36.256Z,95246.72
2023-02-24T15:11:12.687Z,95208.25
2023-02-24T15:13:43.709Z,95164.34
2023-02-24T15:16:20.126Z,95157.63
2023-02-24T15:18:52.370Z,95185.91
2023-02-24T15:21:25.016Z,95190.63
2023-02-24T15:24:01.417Z,95238.59
2023-02-24T15:26:32.460Z,95236.19
2023-02-24T15:29:14.568Z,95208.06
2023-02-24T15:31:51.547Z,95193.97
2023-02-24T15:34:24.008Z,95180.59
2023-02-24T15:36:56.412Z,95176.75
2023-02-24T15:39:31.226Z,95147.72
2023-02-24T15:42:09.552Z,95187.16
2023-02-24T15:44:38.210Z,95129.66
2023-02-24T15:47:24.506Z,95159.59
2023-02-24T15:49:53.851Z,95157.16
2023-02-24T15:52:25.808Z,95135.13
2023-02-24T15:54:56.548Z,95176.63
2023-02-24T15:57:25.074Z,95150.31
2023-02-24T15:59:53.611Z,95180.31
2023-02-24T16:02:24.837Z,95132.25
2023-02-24T16:04:53.711Z,95190.97
2023-02-24T16:07:23.952Z,95128.50
2023-02-24T16:09:54.707Z,95141.13
2023-02-24T16:12:28.738Z,95068.00
2023-02-24T16:15:02.977Z,95139.31
2023-02-24T16:17:38.710Z,95108.91
2023-02-24T16:20:11.891Z,95144.63
2023-02-24T16:22:40.048Z,95141.66
2023-02-24T16:25:09.209Z,95133.09
2023-02-24T16:27:37.651Z,95135.28
2023-02-24T16:30:07.688Z,95132.47
2023-02-24T16:32:38.731Z,95085.91
2023-02-24T16:35:11.199Z,95117.59
2023-02-24T16:37:39.591Z,95116.13
2023-02-24T16:40:37.576Z,95103.34
2023-02-24T16:43:06.141Z,95125.34
2023-02-24T16:45:35.723Z,95103.78
2023-02-24T16:48:08.982Z,95133.47
2023-02-24T16:50:41.020Z,95112.78
2023-02-24T16:53:15.912Z,95122.81
2023-02-24T16:55:44.579Z,95124.00
2023-02-24T16:58:13.897Z,95150.72
2023-02-24T17:00:44.664Z,95129.25
2023-02-24T17:03:19.453Z,95069.47
2023-02-24T17:05:57.736Z,95133.38
2023-02-24T17:08:26.196Z,95065.22
2023-02-24T17:10:54.533Z,95114.34
2023-02-24T17:13:23.564Z,95116.69
2023-02-24T17:15:55.119Z,95070.28
2023-02-24T17:18:25.598Z,95096.78
2023-02-24T17:20:54.805Z,95102.97
2023-02-24T17:23:23.430Z,95127.53
2023-02-24T17:25:54.699Z,95114.06
2023-02-24T17:28:23.319Z,95088.00
2023-02-24T17:30:51.784Z,95102.69
2023-02-24T17:33:20.071Z,95074.06
2023-02-24T17:35:49.633Z,95095.09
2023-02-24T17:38:19.887Z,95054.03
2023-02-24T17:40:48.865Z,95112.72
2023-02-24T17:43:17.305Z,95103.50
2023-02-24T17:45:47.808Z,95097.94
2023-02-24T17:48:17.011Z,95089.97
2023-02-24T17:50:46.684Z,95096.03
2023-02-24T17:53:16.731Z,95109.47
2023-02-24T17:56:01.355Z,95098.47
2023-02-24T17:58:30.206Z,95087.19
2023-02-24T18:00:58.526Z,95084.75
2023-02-24T18:03:26.957Z,95126.22
2023-02-24T18:06:00.545Z,95069.88
2023-02-24T18:08:30.632Z,95147.97
2023-02-24T18:10:59.852Z,95070.56
2023-02-24T18:13:28.942Z,95122.09
2023-02-24T18:15:58.614Z,95147.81
2023-02-24T18:18:27.938Z,95110.81
2023-02-24T18:21:01.596Z,95073.03
2023-02-24T18:23:31.628Z,95097.63
2023-02-24T18:26:08.996Z,95054.97
2023-02-24T18:28:38.381Z,95102.53
2023-02-24T18:31:13.241Z,95113.97
2023-02-24T18:33:41.758Z,95079.41
2023-02-24T18:36:11.104Z,95120.53
2023-02-24T18:38:41.028Z,95095.47
2023-02-24T18:41:12.563Z,95072.75
2023-02-24T18:43:41.191Z,95117.19
2023-02-24T18:46:14.080Z,95134.16
2023-02-24T18:48:44.496Z,95106.91
2023-02-24T18:51:13.882Z,95121.69
2023-02-24T18:53:43.626Z,95091.56
2023-02-24T18:56:17.693Z,95122.59
2023-02-24T18:58:47.089Z,95118.47
2023-02-24T19:01:19.753Z,95107.44
2023-02-24T19:03:51.244Z,95121.34
2023-02-24T19:06:22.155Z,95147.78
2023-02-24T19:08:59.361Z,95078.41
2023-02-24T19:11:28.120Z,95021.94
2023-02-24T19:13:56.826Z,95112.97
2023-02-24T19:16:25.670Z,95122.59
2023-02-24T19:18:56.521Z,95172.38
2023-02-24T19:21:26.456Z,95154.81
2023-02-24T19:23:56.354Z,95145.44
2023-02-24T19:26:27.191Z,95116.38
2023-02-24T19:28:58.478Z,95138.63
2023-02-24T19:31:29.483Z,95145.44
2023-02-24T19:34:00.768Z,95136.69
2023-02-24T19:36:29.775Z,95125.13
2023-02-24T19:38:59.529Z,95115.31
2023-02-24T19:41:28.416Z,95105.66
2023-02-24T19:43:56.996Z,95176.97
2023-02-24T19:46:25.603Z,95149.78
2023-02-24T19:48:54.095Z,95123.66
2023-02-24T19:51:24.781Z,95101.06
2023-02-24T19:53:54.136Z,95147.00
2023-02-24T19:56:25.844Z,95163.56
2023-02-24T19:58:55.019Z,95154.78
2023-02-24T20:01:25.153Z,95131.34
2023-02-24T20:03:56.533Z,95152.13
2023-02-24T20:06:30.363Z,95143.09
2023-02-24T20:09:00.440Z,95184.75
2023-02-24T20:11:33.204Z,95170.00
2023-02-24T20:14:01.382Z,95150.28
2023-02-24T20:16:32.632Z,95175.44
2023-02-24T20:19:01.594Z,95167.41
2023-02-24T20:21:32.135Z,95239.41
2023-02-24T20:24:01.466Z,95172.78
2023-02-24T20:26:31.977Z,95178.34
2023-02-24T20:29:01.407Z,95164.19
2023-02-24T20:31:29.728Z,95220.59
2023-02-24T20:33:58.029Z,95223.69
2023-02-24T20:36:28.417Z,95202.03
2023-02-24T20:38:59.512Z,95218.16
2023-02-24T20:41:30.919Z,95189.97
2023-02-24T20:44:01.021Z,95181.69
2023-02-24T20:46:31.779Z,95137.28
2023-02-24T20:49:02.636Z,95219.44
2023-02-24T20:51:32.139Z,95226.91
2023-02-24T20:54:01.088Z,95250.84
2023-02-24T20:56:35.718Z,95193.19
2023-02-24T20:59:07.528Z,95162.53
2023-02-24T21:01:36.838Z,95121.09
2023-02-24T21:04:10.533Z,95210.56
2023-02-24T21:06:38.751Z,95200.78
2023-02-24T21:09:07.493Z,95236.25
2023-02-24T21:11:37.035Z,95240.66
2023-02-24T21:14:06.020Z,95241.28
2023-02-24T21:16:35.817Z,95258.88
2023-02-24T21:19:04.113Z,95231.91
2023-02-24T21:21:32.297Z,95205.19
2023-02-24T21:24:00.890Z,95221.09
2023-02-24T21:26:29.214Z,95210.81
2023-02-24T21:28:59.330Z,95199.53
2023-02-24T21:31:28.783Z,95273.75
2023-02-24T21:33:57.728Z,95211.34
2023-02-24T21:36:27.923Z,95257.84
2023-02-24T21:38:56.612Z,95258.28
2023-02-24T21:41:25.295Z,95231.50
2023-02-24T21:43:55.762Z,95157.56
2023-02-24T21:46:28.455Z,95247.25
2023-02-24T21:48:57.714Z,95240.31
2023-02-24T21:51:27.267Z,95181.44
2023-02-24T21:53:56.718Z,95226.50
2023-02-24T21:56:27.766Z,95231.50
2023-02-24T21:59:01.357Z,95225.84
2023-02-24T22:01:33.944Z,95286.69
2023-02-24T22:04:05.189Z,95228.88
2023-02-24T22:06:36.253Z,95229.66
2023-02-24T22:09:07.404Z,95243.16
2023-02-24T22:11:40.722Z,95240.31
2023-02-24T22:14:10.376Z,95184.28
2023-02-24T22:16:40.669Z,95196.94
2023-02-24T22:19:09.651Z,95213.72
2023-02-24T22:21:39.234Z,95315.25
2023-02-24T22:24:08.294Z,95223.44
2023-02-24T22:26:36.456Z,95218.59
2023-02-24T22:29:04.912Z,95234.91
2023-02-24T22:31:35.173Z,95185.44
2023-02-24T22:34:05.870Z,95154.69
2023-02-24T22:36:37.726Z,95237.25
2023-02-24T22:39:08.858Z,95077.31
2023-02-24T22:41:38.135Z,95259.03
2023-02-24T22:44:07.330Z,95258.38
2023-02-24T22:46:38.790Z,95205.66
2023-02-24T22:49:11.378Z,95274.50
2023-02-24T22:51:39.601Z,95258.16
2023-02-24T22:54:07.774Z,95244.03
2023-02-24T22:56:37.849Z,95285.16
2023-02-24T22:59:06.117Z,95219.81
2023-02-24T23:01:37.333Z,95222.06
2023-02-24T23:04:09.387Z,95249.38
2023-02-24T23:06:41.711Z,95285.38
2023-02-24T23:09:11.092Z,95257.09
2023-02-24T23:11:41.832Z,95400.97
2023-02-24T23:14:14.661Z,95246.94
2023-02-24T23:16:46.428Z,95308.28
2023-02-24T23:19:18.666Z,95231.03
2023-02-24T23:21:51.041Z,95076.97
2023-02-24T23:24:21.643Z,95257.88
2023-02-24T23:26:53.782Z,95213.34
2023-02-24T23:29:24.184Z,95250.69
2023-02-24T23:31:57.301Z,95232.25
2023-02-24T23:34:27.123Z,95264.19
2023-02-24T23:36:56.740Z,95291.88
2023-02-24T23:39:24.873Z,95304.75
2023-02-24T23:41:57.460Z,95271.09
2023-02-24T23:44:26.280Z,95217.06
2023-02-24T23:46:54.694Z,95251.41
2023-02-24T23:49:22.886Z,95245.78
2023-02-24T23:51:51.119Z,95262.47
2023-02-24T23:54:20.879Z,95281.47
2023-02-24T23:56:49.207Z,95306.00
2023-02-24T23:59:17.386Z,95229.53
